Pagrindinis puslapis
METAR-TAF:

METAR-TAF

Oro uostai :

Gamvik, Norvegija

platuma: 71-02N, ilguma: 027-50E, Aukštis: 1 m

Dabartinis oras

Ataskaita buvo paskelbta 5 valandos ir 46 minutes, ne 20:50 UTC
Vėjas 3 kt iš Rytų/Šiaurės Rytų
Temperatūra 8°C
Drėgmė 93%
Slėgis 1017 hPa
Matomumas 10 km arba daugiau
Su prošvaistėmis ne aukštis 2500 ft

METAR: ENMH 232050Z 07003KT 9999 BKN025 08/07 Q1017

Laikas: 04:36 (02:36 UTC)


TAF: trūkstamas

Orai ataskaitas ir orų prognozės (METAR, TAF).

turimą stotys yra geltonos ir raudonos taškus žemėlapyje.

Perkelti pele per norėdami pamatyti stoties vardą.

Tada spustelėkite, norėdami matyti oro stebėjimo ir prognozės.

Norėdami pakeisti žemėlapį: spustelėkite ant žalios mygtukų su juodo kryžiaus žemyn,; žalią mygtuką su brūkšneliu, jei norite nutolinti; arba žalių rodyklių gretimoms žemėlapius.


METAR-TAF: